Norwegian Pearl — C6VG7 — position and weather

sailwx.info

Track history (hours):
 
Tides and Currents Weather Stations Pressure Air Temp Water Temp Dewpoint Dewpoint Depression Visibility Wind Speed Wind Dir Waves Ship Positions

Norwegian Pearl

Last reported at 2019-Mar-22 08:00 UTC. Time now 2019-Mar-23 04:18 UTC.
Position N 19°06' W 086°54'.

Type: Ship. MMSI: 309653000.

Wind from 020 at 21 knots

Barometer 1012.0 mb
Air temperature 24.0 ° C
Visibility: greater than 10.8 NM
Dewpoint 22.5 ° C
Water temperature 24.0 ° C

Date/timePositionNaut miles runAvg speedWind from/ knotsBaromVisibWave heightAir tempDewpointWater temp
2019-Mar-22 08:00N 19°06' W 086°54'38 9.4 020 / 211012.010.8 24.022.524.0
2019-Mar-22 04:00N 19°42' W 086°42'4412.0 050 / 171013.0 5.4 25.0 25.0
2019-Mar-22 00:20N 20°20' W 087°06'412.0
2019-Mar-22 00:00N 20°23' W 087°04'612.2
2019-Mar-21 23:30N 20°28' W 087°01'5 9.0
2019-Mar-21 23:00N 20°31' W 086°57'0 0.5
2019-Mar-21 22:21N 20°31' W 086°57'0 0.0
2019-Mar-21 21:51N 20°31' W 086°57'0 0.0
2019-Mar-21 21:30N 20°31' W 086°57'0 0.0
2019-Mar-21 21:00N 20°31' W 086°57'0 0.0
2019-Mar-21 20:30N 20°31' W 086°57'0 0.0
2019-Mar-21 20:00N 20°31' W 086°57'0 0.0
2019-Mar-21 19:30N 20°31' W 086°57'0 0.0
2019-Mar-21 18:57N 20°31' W 086°57'0 0.0
2019-Mar-21 18:30N 20°31' W 086°57'0 0.0
2019-Mar-21 18:00N 20°31' W 086°57'0 0.0
2019-Mar-21 17:27N 20°31' W 086°57'0 0.0
2019-Mar-21 17:00N 20°31' W 086°57'0 0.0
2019-Mar-21 16:30N 20°31' W 086°57'0 0.0
2019-Mar-21 16:00N 20°31' W 086°57'0 0.0
2019-Mar-21 15:27N 20°31' W 086°57'0 0.0
2019-Mar-21 15:00N 20°31' W 086°57'0 0.0
2019-Mar-21 14:30N 20°31' W 086°57'0 0.0
2019-Mar-21 14:00N 20°31' W 086°57'0 0.0
2019-Mar-21 13:30N 20°31' W 086°57'1 1.8
2019-Mar-21 13:00N 20°30' W 086°58'5 9.2
2019-Mar-21 12:30N 20°27' W 087°02'8118.0
2019-Mar-21 08:00N 19°06' W 086°54'177 7.4 080 / 251011.010.8 25.023.525.0
2019-Mar-20 08:00N 16°12' W 087°30'76 3.0 170 / 101009.027.0 25.023.525.0
2019-Mar-19 07:00N 17°24' W 087°06'9122.7 210 / 91009.010.8 25.023.525.0
2019-Mar-19 03:00N 18°48' W 086°30'32020.0 140 / 111010.0 5.4 25.0 25.0
2019-Mar-18 11:00N 23°48' W 084°30'26119.4 080 / 81010.010.8 23.0 27.0
2019-Mar-17 21:35N 27°46' W 082°31'512.4
2019-Mar-17 21:12N 27°49' W 082°27'312.8
2019-Mar-17 21:00N 27°51' W 082°27'5 9.1
2019-Mar-17 20:30N 27°56' W 082°27'1 2.0
2019-Mar-17 20:00N 27°57' W 082°27'0 0.0
2019-Mar-17 19:30N 27°57' W 082°27'0 0.0
2019-Mar-17 19:00N 27°57' W 082°27'0 0.0
2019-Mar-17 18:30N 27°57' W 082°27'0 0.0
2019-Mar-17 17:57N 27°57' W 082°27'0 0.0
2019-Mar-17 17:27N 27°57' W 082°27'0 0.0
2019-Mar-17 17:00N 27°57' W 082°27'0 0.0
2019-Mar-17 16:27N 27°57' W 082°27'0 0.0
2019-Mar-17 16:00N 27°57' W 082°27'0 0.0
2019-Mar-17 15:30N 27°57' W 082°27'0 0.0
2019-Mar-17 14:57N 27°57' W 082°27'0 0.0
2019-Mar-17 14:27N 27°57' W 082°27'0 0.0
2019-Mar-17 14:00N 27°57' W 082°27'0 0.0
2019-Mar-17 13:30N 27°57' W 082°27'0 0.0
2019-Mar-17 13:00N 27°57' W 082°27'0 0.0
2019-Mar-17 12:30N 27°57' W 082°27'0 0.0
2019-Mar-17 12:00N 27°57' W 082°27'0 0.0
2019-Mar-17 11:30N 27°57' W 082°27'0 0.0
2019-Mar-17 11:00N 27°57' W 082°27'1 1.9
2019-Mar-17 10:30N 27°56' W 082°27'2 3.9
2019-Mar-17 10:00N 27°54' W 082°26'510.7
2019-Mar-17 09:30N 27°48' W 082°28'612.6
2019-Mar-17 08:59N 27°43' W 082°32'16016.0
2019-Mar-16 23:00N 25°18' W 083°48'8320.7 100 / 101013.010.8 24.0 26.0
2019-Mar-16 19:00N 24°00' W 084°18'15419.2 130 / 271013.010.8 25.023.524.0
2019-Mar-16 11:00N 21°30' W 084°54'5418.0 050 / 81012.010.8 25.0 28.0
2019-Mar-16 08:00N 21°00' W 084°06'10320.7 060 / 121011.010.8 25.023.525.0
2019-Mar-16 03:00N 20°00' W 082°36'6220.8 070 / 191012.0 5.4 25.0 25.0
2019-Mar-16 00:00N 19°24' W 081°42'128 8.0 060 / 221011.010.8 26.0 28.0
2019-Mar-15 08:00N 18°00' W 083°24'17121.4 120 / 251009.010.8 26.024.626.0
2019-Mar-15 00:00N 16°18' W 085°48'70 4.4 110 / 341006.010.8 27.0 28.0
2019-Mar-14 08:00N 16°48' W 086°54'51 2.1 100 / 401006.010.8 26.024.626.0
2019-Mar-13 08:00N 17°36' W 087°12'93 4.4 090 / 321008.010.8 26.024.626.0
2019-Mar-12 11:00N 16°12' W 087°54'   060 / 161009.010.8 26.0 28.0
Track history (hours):
 
Tides and Currents Weather Stations Pressure Air Temp Water Temp Dewpoint Dewpoint Depression Visibility Wind Speed Wind Dir Waves Ship Positions

Norwegian Pearl

Last reported at 2019-Mar-22 08:00 UTC. Time now 2019-Mar-23 04:18 UTC.
Position N 19°06' W 086°54'.

Type: Ship. MMSI: 309653000.

Wind from 020 at 21 knots

Barometer 1012.0 mb
Air temperature 24.0 ° C
Visibility: greater than 10.8 NM
Dewpoint 22.5 ° C
Water temperature 24.0 ° C

Date/timePositionNaut miles runAvg speedWind from/ knotsBaromVisibWave heightAir tempDewpointWater temp
2019-Mar-22 08:00N 19°06' W 086°54'38 9.4 020 / 211012.010.8 24.022.524.0
2019-Mar-22 04:00N 19°42' W 086°42'4412.0 050 / 171013.0 5.4 25.0 25.0
2019-Mar-22 00:20N 20°20' W 087°06'412.0
2019-Mar-22 00:00N 20°23' W 087°04'612.2
2019-Mar-21 23:30N 20°28' W 087°01'5 9.0
2019-Mar-21 23:00N 20°31' W 086°57'0 0.5
2019-Mar-21 22:21N 20°31' W 086°57'0 0.0
2019-Mar-21 21:51N 20°31' W 086°57'0 0.0
2019-Mar-21 21:30N 20°31' W 086°57'0 0.0
2019-Mar-21 21:00N 20°31' W 086°57'0 0.0
2019-Mar-21 20:30N 20°31' W 086°57'0 0.0
2019-Mar-21 20:00N 20°31' W 086°57'0 0.0
2019-Mar-21 19:30N 20°31' W 086°57'0 0.0
2019-Mar-21 18:57N 20°31' W 086°57'0 0.0
2019-Mar-21 18:30N 20°31' W 086°57'0 0.0
2019-Mar-21 18:00N 20°31' W 086°57'0 0.0
2019-Mar-21 17:27N 20°31' W 086°57'0 0.0
2019-Mar-21 17:00N 20°31' W 086°57'0 0.0
2019-Mar-21 16:30N 20°31' W 086°57'0 0.0
2019-Mar-21 16:00N 20°31' W 086°57'0 0.0
2019-Mar-21 15:27N 20°31' W 086°57'0 0.0
2019-Mar-21 15:00N 20°31' W 086°57'0 0.0
2019-Mar-21 14:30N 20°31' W 086°57'0 0.0
2019-Mar-21 14:00N 20°31' W 086°57'0 0.0
2019-Mar-21 13:30N 20°31' W 086°57'1 1.8
2019-Mar-21 13:00N 20°30' W 086°58'5 9.2
2019-Mar-21 12:30N 20°27' W 087°02'8118.0
2019-Mar-21 08:00N 19°06' W 086°54'177 7.4 080 / 251011.010.8 25.023.525.0
2019-Mar-20 08:00N 16°12' W 087°30'76 3.0 170 / 101009.027.0 25.023.525.0
2019-Mar-19 07:00N 17°24' W 087°06'9122.7 210 / 91009.010.8 25.023.525.0
2019-Mar-19 03:00N 18°48' W 086°30'32020.0 140 / 111010.0 5.4 25.0 25.0
2019-Mar-18 11:00N 23°48' W 084°30'26119.4 080 / 81010.010.8 23.0 27.0
2019-Mar-17 21:35N 27°46' W 082°31'512.4
2019-Mar-17 21:12N 27°49' W 082°27'312.8
2019-Mar-17 21:00N 27°51' W 082°27'5 9.1
2019-Mar-17 20:30N 27°56' W 082°27'1 2.0
2019-Mar-17 20:00N 27°57' W 082°27'0 0.0
2019-Mar-17 19:30N 27°57' W 082°27'0 0.0
2019-Mar-17 19:00N 27°57' W 082°27'0 0.0
2019-Mar-17 18:30N 27°57' W 082°27'0 0.0
2019-Mar-17 17:57N 27°57' W 082°27'0 0.0
2019-Mar-17 17:27N 27°57' W 082°27'0 0.0
2019-Mar-17 17:00N 27°57' W 082°27'0 0.0
2019-Mar-17 16:27N 27°57' W 082°27'0 0.0
2019-Mar-17 16:00N 27°57' W 082°27'0 0.0
2019-Mar-17 15:30N 27°57' W 082°27'0 0.0
2019-Mar-17 14:57N 27°57' W 082°27'0 0.0
2019-Mar-17 14:27N 27°57' W 082°27'0 0.0
2019-Mar-17 14:00N 27°57' W 082°27'0 0.0
2019-Mar-17 13:30N 27°57' W 082°27'0 0.0
2019-Mar-17 13:00N 27°57' W 082°27'0 0.0
2019-Mar-17 12:30N 27°57' W 082°27'0 0.0
2019-Mar-17 12:00N 27°57' W 082°27'0 0.0
2019-Mar-17 11:30N 27°57' W 082°27'0 0.0
2019-Mar-17 11:00N 27°57' W 082°27'1 1.9
2019-Mar-17 10:30N 27°56' W 082°27'2 3.9
2019-Mar-17 10:00N 27°54' W 082°26'510.7
2019-Mar-17 09:30N 27°48' W 082°28'612.6
2019-Mar-17 08:59N 27°43' W 082°32'16016.0
2019-Mar-16 23:00N 25°18' W 083°48'8320.7 100 / 101013.010.8 24.0 26.0
2019-Mar-16 19:00N 24°00' W 084°18'15419.2 130 / 271013.010.8 25.023.524.0
2019-Mar-16 11:00N 21°30' W 084°54'5418.0 050 / 81012.010.8 25.0 28.0
2019-Mar-16 08:00N 21°00' W 084°06'10320.7 060 / 121011.010.8 25.023.525.0
2019-Mar-16 03:00N 20°00' W 082°36'6220.8 070 / 191012.0 5.4 25.0 25.0
2019-Mar-16 00:00N 19°24' W 081°42'128 8.0 060 / 221011.010.8 26.0 28.0
2019-Mar-15 08:00N 18°00' W 083°24'17121.4 120 / 251009.010.8 26.024.626.0
2019-Mar-15 00:00N 16°18' W 085°48'70 4.4 110 / 341006.010.8 27.0 28.0
2019-Mar-14 08:00N 16°48' W 086°54'51 2.1 100 / 401006.010.8 26.024.626.0
2019-Mar-13 08:00N 17°36' W 087°12'93 4.4 090 / 321008.010.8 26.024.626.0
2019-Mar-12 11:00N 16°12' W 087°54'   060 / 161009.010.8 26.0 28.0

Dump ship's entire track history